Airport Name : Camp Pendleton MCAS

Other Name : Camp Pendleton

ICAO : KNFG

IATA :

FAA : NFG

Latitude : 33.30125

Longitude : -117.355147

Country : United States

Local Date and Time : 4/21/2018 2:50:00 AM

 

TAF (Terminal Aerodrome Forecast)

TAF KNFG 2109/2209 VRB05KT 9999 SKC QNH3002INS TEMPO 2109/2115 4800 BR BKN008 FM211830 25009KT 9999 FEW200 QNH2997INS T07/2115Z T24/2121Z

 

METAR (METeorological Aerodrome Report)

KNFG 210903Z AUTO 35003KT 10SM FEW008 08/07 A3007 RMK AO2 T00830072

KNFG 210855Z AUTO 04004KT 10SM CLR 09/08 A3007 RMK AO2 SLP183 T00890078 58008

KNFG 210819Z AUTO 05005KT 10SM SCT006 09/08 A3009 RMK AO2 T00890078

KNFG 210755Z AUTO 01004KT 10SM BKN006 09/08 A3010 RMK AO2 SLP191 T00890078 402170044

KNFG 210746Z AUTO 03003KT 10SM SCT006 09/08 A3010 RMK AO2 T00940083

KNFG 210655Z AUTO 00000KT 10SM CLR 09/08 A3011 RMK AO2 SLP196 T00890083

KNFG 210555Z AUTO 31003KT 10SM CLR 10/09 A3010 RMK AO2 SLP191 T01000094 10189 20100 50004